Tullamore, Ireland
Current Conditions -  °F | °C
As of 1:00 AM on Tuesday 23 Dec 2014 (Local Time) from EIME Reporting Station
Overcast Overcast  
Wind Chill: 52°   Ceiling: 1100
Heat Index: 52°   Visibility: 6mi
Dew Point: 50°   Wind: 22mph
Humidity: 94%   Direction: 230°SW
Pressure: 29.8"   Gusts: 33mph
Location:  53.28°N, 7.49°W
Report Text: EIME 230100Z 23019G29KT 9999 OVC011 11/10 Q1009
Loading
Personal Weather Stations






























Interactive Weather Map New forecast layout! Learn more

10-Day Weather Forecast

Advertisements
Track Severe Weather on mobile